Time;durP1;ratioP1;P1;durP2;ratioP2;P2;SDS_P1;SDS_P2;PMS_P1;PMS_P2;Temp;Humidity;BMP_temperature;BMP_pressure;BME280_temperature;BME280_humidity;BME280_pressure;Samples;Min_cycle;Max_cycle;Signal;HPM_P1;HPM_P2
2022/10/18 00:00:37;;;;;;;33.70;20.45;;;16.80;90.50;;;;;;9181020;19;20406;-66
2022/10/18 00:03:42;;;;;;;34.08;20.85;;;16.80;90.50;;;;;;9180463;19;20074;-66
2022/10/18 00:07:06;;;;;;;36.65;19.85;;;16.80;90.50;;;;;;9178017;19;20031;-65
2022/10/18 00:10:10;;;;;;;34.50;19.75;;;16.80;90.50;;;;;;9180341;19;20359;-65
2022/10/18 00:13:14;;;;;;;40.45;20.08;;;16.80;90.50;;;;;;9178110;19;20010;-64
2022/10/18 00:16:19;;;;;;;35.05;20.30;;;16.80;90.50;;;;;;9180583;19;20093;-64
2022/10/18 00:19:24;;;;;;;40.03;22.05;;;16.80;90.50;;;;;;9181143;19;20471;-64
2022/10/18 00:22:32;;;;;;;43.80;22.58;;;16.80;90.50;;;;;;9174757;19;20025;-64
2022/10/18 00:25:36;;;;;;;35.60;21.63;;;16.80;90.50;;;;;;9180864;19;20086;-64
2022/10/18 00:28:41;;;;;;;40.40;22.60;;;16.80;90.50;;;;;;9180615;19;20483;-65
2022/10/18 00:31:45;;;;;;;41.67;22.00;;;16.90;90.50;;;;;;9180027;19;20363;-64
2022/10/18 00:34:50;;;;;;;;;;;16.80;90.50;;;;;;9182486;19;20011;-65
2022/10/18 00:37:54;;;;;;;39.97;21.65;;;16.90;90.50;;;;;;9180143;19;20054;-64
2022/10/18 00:40:57;;;;;;;40.35;21.60;;;16.90;90.50;;;;;;9180553;19;20123;-64
2022/10/18 00:44:03;;;;;;;33.45;21.70;;;16.90;90.50;;;;;;9180130;19;20023;-66
2022/10/18 00:47:11;;;;;;;37.28;20.60;;;16.90;90.80;;;;;;9179512;19;20055;-65
2022/10/18 00:50:17;;;;;;;36.22;21.88;;;16.90;90.50;;;;;;9179720;19;20100;-64
2022/10/18 00:53:24;;;;;;;34.78;21.25;;;16.90;90.50;;;;;;9177322;19;20543;-65
2022/10/18 00:56:28;;;;;;;35.15;20.95;;;16.90;90.50;;;;;;9180975;19;20093;-65
2022/10/18 00:59:31;;;;;;;;;;;16.90;90.50;;;;;;9181099;19;20083;-64
2022/10/18 01:02:35;;;;;;;33.10;21.70;;;16.90;90.50;;;;;;9177658;19;19943;-64
2022/10/18 01:05:45;;;;;;;33.35;21.70;;;16.90;90.40;;;;;;9177256;19;20020;-64
2022/10/18 01:09:10;;;;;;;39.38;21.50;;;16.90;90.50;;;;;;9179853;19;20015;-64
2022/10/18 01:12:23;;;;;;;36.63;22.90;;;16.80;90.50;;;;;;9178301;19;20082;-64
2022/10/18 01:15:30;;;;;;;33.78;20.48;;;16.80;90.50;;;;;;9179943;19;20019;-64
2022/10/18 01:18:40;;;;;;;36.47;21.75;;;16.80;90.50;;;;;;9179139;19;20113;-65
2022/10/18 01:21:51;;;;;;;39.70;23.45;;;16.80;90.50;;;;;;9173750;19;20386;-65
2022/10/18 01:25:04;;;;;;;39.25;22.85;;;16.80;90.50;;;;;;9179757;19;20090;-65
2022/10/18 01:28:20;;;;;;;43.27;22.50;;;16.80;90.50;;;;;;9177572;19;20018;-64
2022/10/18 01:31:30;;;;;;;34.75;21.35;;;16.80;90.50;;;;;;9178616;19;20035;-66
2022/10/18 01:34:37;;;;;;;37.88;23.27;;;16.90;90.50;;;;;;9179301;19;20090;-66
2022/10/18 01:37:45;;;;;;;45.03;24.20;;;16.80;90.50;;;;;;9179886;19;20021;-66
2022/10/18 01:40:51;;;;;;;39.60;23.40;;;16.80;90.50;;;;;;9179322;19;20048;-64
2022/10/18 01:43:59;;;;;;;44.17;24.63;;;16.80;90.50;;;;;;9175744;19;20523;-65
2022/10/18 01:47:07;;;;;;;36.85;22.95;;;16.80;90.50;;;;;;9178763;19;20365;-65
2022/10/18 01:50:11;;;;;;;40.13;23.92;;;16.80;90.50;;;;;;9178910;19;20078;-64
2022/10/18 01:53:26;;;;;;;42.80;23.50;;;16.80;90.50;;;;;;9176329;19;20085;-66
2022/10/18 01:56:43;;;;;;;35.88;22.55;;;16.80;90.50;;;;;;9178726;19;20554;-65
2022/10/18 01:59:55;;;;;;;38.30;23.13;;;16.80;90.50;;;;;;9176942;19;20007;-65
2022/10/18 02:03:05;;;;;;;33.50;21.48;;;16.80;90.50;;;;;;9178238;19;20393;-67
2022/10/18 02:06:17;;;;;;;32.63;20.95;;;16.80;90.50;;;;;;9174953;19;21159;-65
2022/10/18 02:09:27;;;;;;;32.03;20.85;;;16.80;90.50;;;;;;9178039;19;20052;-65
2022/10/18 02:12:34;;;;;;;29.85;20.20;;;16.80;90.50;;;;;;9176001;19;20014;-67
2022/10/18 02:15:41;;;;;;;27.75;19.40;;;16.80;90.50;;;;;;9177962;19;20003;-63
2022/10/18 02:18:51;;;;;;;29.63;19.77;;;16.70;90.50;;;;;;9178205;19;20018;-65
2022/10/18 02:21:57;;;;;;;32.85;20.67;;;16.70;90.50;;;;;;9173457;19;20070;-63
2022/10/18 02:25:05;;;;;;;28.13;20.17;;;16.70;90.50;;;;;;9177320;19;20481;-66
2022/10/18 02:28:09;;;;;;;26.33;18.67;;;16.70;90.50;;;;;;9176986;19;20637;-64
2022/10/18 02:31:19;;;;;;;25.35;18.08;;;16.70;90.50;;;;;;9177727;19;20021;-63
2022/10/18 02:34:30;;;;;;;27.45;18.38;;;16.70;90.50;;;;;;9172845;19;20014;-64
2022/10/18 02:37:37;;;;;;;26.52;19.15;;;16.70;90.50;;;;;;9176750;19;20018;-66
2022/10/18 02:40:40;;;;;;;25.83;17.35;;;16.70;90.50;;;;;;9174909;19;20055;-65
2022/10/18 02:43:44;;;;;;;27.98;19.02;;;16.70;90.50;;;;;;9174893;19;20014;-68
2022/10/18 02:46:49;;;;;;;26.42;17.83;;;16.60;90.50;;;;;;9176065;19;20052;-64
2022/10/18 02:49:54;;;;;;;24.13;17.85;;;16.60;90.50;;;;;;9174633;19;20018;-65
2022/10/18 02:52:58;;;;;;;24.23;17.38;;;16.60;90.50;;;;;;9174236;19;20018;-65
2022/10/18 02:56:02;;;;;;;23.08;17.25;;;16.60;90.50;;;;;;9174542;19;20021;-64
2022/10/18 02:59:06;;;;;;;;;;;16.60;90.50;;;;;;9176626;19;20086;-64
2022/10/18 03:02:09;;;;;;;20.95;15.93;;;16.60;90.50;;;;;;9175420;19;19914;-65
2022/10/18 03:05:15;;;;;;;22.25;16.38;;;16.60;90.40;;;;;;9174454;19;20014;-65
2022/10/18 03:08:21;;;;;;;19.80;15.35;;;16.60;90.50;;;;;;9175120;19;20030;-65
2022/10/18 03:11:25;;;;;;;22.60;16.77;;;16.50;90.50;;;;;;9175590;19;20047;-64
2022/10/18 03:14:28;;;;;;;19.20;14.77;;;16.50;90.50;;;;;;9181187;19;20047;-65
2022/10/18 03:17:32;;;;;;;19.90;14.60;;;16.50;90.50;;;;;;9183685;19;20020;-64
2022/10/18 03:20:38;;;;;;;;;;;16.50;90.50;;;;;;9179581;19;20017;-64
2022/10/18 03:23:42;;;;;;;20.23;15.70;;;16.50;90.50;;;;;;9183512;19;19943;-63
2022/10/18 03:26:46;;;;;;;21.10;14.73;;;16.50;90.40;;;;;;9182920;19;20034;-64
2022/10/18 03:29:49;;;;;;;20.10;15.43;;;16.50;90.40;;;;;;9183069;19;20112;-65
2022/10/18 03:32:53;;;;;;;21.52;14.98;;;16.40;90.40;;;;;;9182137;19;20476;-66
2022/10/18 03:35:59;;;;;;;22.25;16.65;;;16.40;90.40;;;;;;9181654;19;20018;-65
2022/10/18 03:39:02;;;;;;;19.63;14.85;;;16.40;90.40;;;;;;9182810;19;20015;-65
2022/10/18 03:42:06;;;;;;;20.80;15.77;;;16.40;90.50;;;;;;9182136;19;20487;-64
2022/10/18 03:45:10;;;;;;;21.27;15.52;;;16.40;90.50;;;;;;9181673;19;20064;-65
2022/10/18 03:48:14;;;;;;;22.63;15.20;;;16.30;90.40;;;;;;9181171;19;20002;-64
2022/10/18 03:51:20;;;;;;;20.92;15.68;;;16.30;90.40;;;;;;9182677;19;20021;-66
2022/10/18 03:54:23;;;;;;;18.85;14.55;;;16.30;90.50;;;;;;9179960;19;20018;-64
2022/10/18 03:57:27;;;;;;;19.23;15.07;;;16.30;90.50;;;;;;9182586;19;20009;-66
2022/10/18 04:00:31;;;;;;;19.95;15.90;;;16.30;90.50;;;;;;9182225;19;20485;-64
2022/10/18 04:03:34;;;;;;;21.83;15.45;;;16.20;90.50;;;;;;9182396;19;20045;-65
2022/10/18 04:06:40;;;;;;;23.45;16.45;;;16.20;90.50;;;;;;9179394;19;20081;-64
2022/10/18 04:09:44;;;;;;;20.90;15.55;;;16.30;90.50;;;;;;9181253;19;20042;-65
2022/10/18 04:12:47;;;;;;;25.15;16.20;;;16.20;90.50;;;;;;9180987;19;20015;-63
2022/10/18 04:15:51;;;;;;;21.55;15.48;;;16.20;90.50;;;;;;9179493;19;20014;-65
2022/10/18 04:18:55;;;;;;;22.92;15.50;;;16.20;90.50;;;;;;9182277;19;20010;-64
2022/10/18 04:22:00;;;;;;;20.48;14.88;;;16.20;90.50;;;;;;9176494;19;20026;-64
2022/10/18 04:25:04;;;;;;;20.15;14.18;;;16.20;90.50;;;;;;9180485;19;20022;-65
2022/10/18 04:28:08;;;;;;;21.40;14.93;;;16.20;90.50;;;;;;9180122;19;20018;-64
2022/10/18 04:31:12;;;;;;;20.83;15.23;;;16.20;90.50;;;;;;9181066;19;20381;-64
2022/10/18 04:34:16;;;;;;;20.30;14.48;;;16.10;90.50;;;;;;9178361;19;20014;-66
2022/10/18 04:37:21;;;;;;;22.42;15.50;;;16.10;90.50;;;;;;9180174;19;20014;-65
2022/10/18 04:40:25;;;;;;;20.25;15.15;;;16.10;90.50;;;;;;9180577;19;20010;-65
2022/10/18 04:43:29;;;;;;;19.25;14.98;;;16.10;90.50;;;;;;9180520;19;20015;-65
2022/10/18 04:46:33;;;;;;;20.45;14.52;;;16.10;90.50;;;;;;9180351;19;20048;-64
2022/10/18 04:49:36;;;;;;;20.73;15.57;;;16.10;90.50;;;;;;9180162;19;20015;-67
2022/10/18 04:52:42;;;;;;;21.70;15.18;;;16.10;90.50;;;;;;9178886;19;20026;-64
2022/10/18 04:55:46;;;;;;;19.70;14.65;;;16.00;90.50;;;;;;9180888;19;20025;-66
2022/10/18 04:58:50;;;;;;;23.58;16.75;;;16.00;90.50;;;;;;9179840;19;20031;-65
2022/10/18 05:01:54;;;;;;;21.67;16.35;;;16.00;90.50;;;;;;9179834;19;20022;-64
2022/10/18 05:04:57;;;;;;;21.02;15.18;;;16.00;90.50;;;;;;9179566;19;20015;-66
2022/10/18 05:08:03;;;;;;;22.13;15.90;;;16.00;90.50;;;;;;9179807;19;20029;-64
2022/10/18 05:11:07;;;;;;;21.60;15.82;;;16.00;90.50;;;;;;9180419;19;20063;-65
2022/10/18 05:14:11;;;;;;;19.88;14.57;;;16.00;90.50;;;;;;9177766;19;20018;-64
2022/10/18 05:17:14;;;;;;;19.30;14.77;;;15.90;90.50;;;;;;9179569;19;20479;-65
2022/10/18 05:20:18;;;;;;;;;;;16.00;90.60;;;;;;9174848;19;20471;-63
2022/10/18 05:23:24;;;;;;;19.88;14.32;;;15.90;90.50;;;;;;9177121;19;19919;-65
2022/10/18 05:26:28;;;;;;;24.60;14.93;;;15.90;90.40;;;;;;9179116;19;20379;-65
2022/10/18 05:29:32;;;;;;;20.38;14.88;;;15.90;90.40;;;;;;9176258;19;20023;-64
2022/10/18 05:32:35;;;;;;;22.35;15.38;;;15.90;90.50;;;;;;9177536;19;20026;-63
2022/10/18 05:35:39;;;;;;;25.65;18.40;;;15.90;90.50;;;;;;9176714;19;20944;-64
2022/10/18 05:38:46;;;;;;;30.60;18.80;;;15.90;90.50;;;;;;9173276;19;20023;-66
2022/10/18 05:41:50;;;;;;;21.92;15.50;;;15.90;90.50;;;;;;9171328;19;20058;-64
2022/10/18 05:44:53;;;;;;;26.40;17.00;;;15.90;90.50;;;;;;9172285;19;20018;-66
2022/10/18 05:47:57;;;;;;;23.80;15.75;;;15.90;90.50;;;;;;9173109;19;20048;-63
2022/10/18 05:51:01;;;;;;;23.90;15.20;;;15.90;90.50;;;;;;9178911;19;20023;-63
2022/10/18 05:54:07;;;;;;;23.65;15.00;;;15.80;90.50;;;;;;9176244;19;20090;-64
2022/10/18 05:57:10;;;;;;;21.33;14.85;;;15.80;90.50;;;;;;9174928;19;20938;-64
2022/10/18 06:00:15;;;;;;;27.00;15.30;;;15.80;90.50;;;;;;9177183;19;20056;-63
2022/10/18 06:03:19;;;;;;;22.27;15.13;;;15.80;90.50;;;;;;9178542;19;20033;-65
2022/10/18 06:06:23;;;;;;;22.45;13.85;;;15.80;90.50;;;;;;9175061;19;20027;-64
2022/10/18 06:09:29;;;;;;;24.63;14.15;;;15.80;90.50;;;;;;9177643;19;20494;-64
2022/10/18 06:12:33;;;;;;;21.67;14.57;;;15.80;90.50;;;;;;9176736;19;20022;-64
2022/10/18 06:15:36;;;;;;;23.10;15.05;;;15.80;90.50;;;;;;9176880;19;20032;-66
2022/10/18 06:18:40;;;;;;;21.73;13.55;;;15.80;90.50;;;;;;9177536;19;20022;-65
2022/10/18 06:21:44;;;;;;;;;;;15.70;90.50;;;;;;9172195;19;20122;-64
2022/10/18 06:24:49;;;;;;;25.52;15.50;;;15.70;90.50;;;;;;9173314;19;19952;-66
2022/10/18 06:28:00;;;;;;;27.40;15.18;;;15.70;90.50;;;;;;9172865;19;20018;-64
2022/10/18 06:31:05;;;;;;;38.33;16.77;;;15.70;90.50;;;;;;9173971;19;20011;-65
2022/10/18 06:34:09;;;;;;;34.03;16.38;;;15.70;90.50;;;;;;9167987;19;20025;-67
2022/10/18 06:37:12;;;;;;;30.90;14.77;;;15.70;90.50;;;;;;9174446;19;20014;-63
2022/10/18 06:40:18;;;;;;;29.02;15.27;;;15.60;90.50;;;;;;9176947;19;20027;-63
2022/10/18 06:43:22;;;;;;;30.80;15.68;;;15.60;90.50;;;;;;9175670;19;20056;-65
2022/10/18 06:46:26;;;;;;;33.83;16.45;;;15.60;90.50;;;;;;9175163;19;20086;-64
2022/10/18 06:49:30;;;;;;;31.75;16.15;;;15.60;90.50;;;;;;9176490;19;20022;-64
2022/10/18 06:52:33;;;;;;;46.08;16.10;;;15.60;90.60;;;;;;9175422;19;20019;-65
2022/10/18 06:55:39;;;;;;;;;;;15.60;90.60;;;;;;9177485;19;20099;-64
2022/10/18 06:58:43;;;;;;;35.13;14.38;;;15.60;90.60;;;;;;9174544;19;19926;-64
2022/10/18 07:01:46;;;;;;;31.63;14.48;;;15.60;90.50;;;;;;9175491;19;20378;-64
2022/10/18 07:04:50;;;;;;;36.35;14.90;;;15.60;90.60;;;;;;9171918;19;20415;-66
2022/10/18 07:07:54;;;;;;;34.22;14.85;;;15.60;90.60;;;;;;9174032;19;20019;-64
2022/10/18 07:11:01;;;;;;;29.20;14.52;;;15.60;90.60;;;;;;9173270;19;20033;-64
2022/10/18 07:14:05;;;;;;;33.60;14.18;;;15.60;90.70;;;;;;9173676;19;20018;-64
2022/10/18 07:17:09;;;;;;;38.08;16.27;;;15.60;90.60;;;;;;9166364;19;20023;-68
2022/10/18 07:20:12;;;;;;;36.70;15.52;;;15.60;90.70;;;;;;9161423;19;20011;-64
2022/10/18 07:23:17;;;;;;;36.10;14.95;;;15.60;90.60;;;;;;9168036;19;20086;-65
2022/10/18 07:26:26;;;;;;;31.55;14.40;;;15.60;90.70;;;;;;9168404;19;20029;-67
2022/10/18 07:29:29;;;;;;;30.20;13.32;;;15.60;90.70;;;;;;9166861;19;20018;-67
2022/10/18 07:32:33;;;;;;;38.47;13.75;;;15.60;90.70;;;;;;9162903;19;20479;-67
2022/10/18 07:35:37;;;;;;;31.10;13.82;;;15.60;90.70;;;;;;9174478;19;20021;-67
2022/10/18 07:38:41;;;;;;;29.15;12.55;;;15.60;90.60;;;;;;9172261;19;20014;-67
2022/10/18 07:41:46;;;;;;;29.95;13.45;;;15.60;90.60;;;;;;9168991;19;20532;-65
2022/10/18 07:44:50;;;;;;;28.50;12.38;;;15.60;90.70;;;;;;9167974;19;20151;-65
2022/10/18 07:47:56;;;;;;;33.15;13.52;;;15.60;90.60;;;;;;9167750;19;20100;-65
2022/10/18 07:51:01;;;;;;;28.73;13.65;;;15.70;90.70;;;;;;9166860;19;20094;-65
2022/10/18 07:54:05;;;;;;;31.90;14.10;;;15.60;90.60;;;;;;9167515;19;20094;-65
2022/10/18 07:57:10;;;;;;;32.70;12.82;;;15.70;90.70;;;;;;9166315;19;20018;-65
2022/10/18 08:00:15;;;;;;;29.05;13.32;;;15.70;90.70;;;;;;9172825;19;20665;-66
2022/10/18 08:03:18;;;;;;;27.58;12.15;;;15.60;90.60;;;;;;9172590;19;20022;-67
2022/10/18 08:06:23;;;;;;;28.58;12.63;;;15.70;90.70;;;;;;9171307;19;20010;-65
2022/10/18 08:09:27;;;;;;;36.90;14.23;;;15.60;90.60;;;;;;9178026;19;20121;-68
2022/10/18 08:12:33;;;;;;;27.90;12.93;;;15.70;90.70;;;;;;9180236;19;20018;-68
2022/10/18 08:15:38;;;;;;;29.48;12.43;;;15.70;90.70;;;;;;9179720;19;20067;-68
2022/10/18 08:18:42;;;;;;;28.80;12.68;;;15.70;90.60;;;;;;9167897;19;20018;-66
2022/10/18 08:21:45;;;;;;;;;;;15.70;90.70;;;;;;9171165;19;20026;-66
2022/10/18 08:24:49;;;;;;;32.78;13.57;;;15.70;90.60;;;;;;9173441;19;19907;-67
2022/10/18 08:27:55;;;;;;;28.67;13.55;;;15.70;90.60;;;;;;9173245;19;20048;-68
2022/10/18 08:31:02;;;;;;;36.30;13.68;;;15.70;90.60;;;;;;9174449;19;20051;-69
2022/10/18 08:34:06;;;;;;;29.55;13.13;;;15.70;90.60;;;;;;9166664;19;20020;-68
2022/10/18 08:37:10;;;;;;;29.80;13.70;;;15.80;90.60;;;;;;9174866;19;20029;-68
2022/10/18 08:40:15;;;;;;;36.45;13.15;;;15.80;90.70;;;;;;9174579;19;20015;-67
2022/10/18 08:43:31;;;;;;;30.25;12.95;;;15.80;90.60;;;;;;9172425;19;20040;-68
2022/10/18 08:46:38;;;;;;;25.83;12.27;;;15.80;90.60;;;;;;9174029;19;20674;-68
2022/10/18 08:49:45;;;;;;;30.25;13.88;;;15.90;90.70;;;;;;9170230;19;20022;-67
2022/10/18 08:52:58;;;;;;;26.42;14.13;;;15.90;90.60;;;;;;9169663;19;20025;-69
2022/10/18 08:56:09;;;;;;;30.45;13.85;;;15.90;90.60;;;;;;9173125;19;20683;-67
2022/10/18 08:59:15;;;;;;;31.55;13.68;;;15.90;90.60;;;;;;9172283;19;20094;-65
2022/10/18 09:02:36;;;;;;;28.08;13.40;;;16.00;90.60;;;;;;9174668;19;20083;-65
2022/10/18 09:05:49;;;;;;;29.08;13.63;;;16.00;90.60;;;;;;9172436;19;20094;-67
2022/10/18 09:09:06;;;;;;;35.28;14.20;;;16.00;90.60;;;;;;9177085;19;20018;-67
2022/10/18 09:12:27;;;;;;;33.28;14.52;;;16.10;90.70;;;;;;9175041;19;20074;-68
2022/10/18 09:15:41;;;;;;;32.78;14.80;;;16.20;90.70;;;;;;9171514;19;20026;-68
2022/10/18 09:18:56;;;;;;;34.92;15.02;;;16.20;90.70;;;;;;9172818;19;20553;-66
2022/10/18 09:22:08;;;;;;;29.25;13.70;;;16.30;90.70;;;;;;9178796;19;20082;-63
2022/10/18 09:25:19;;;;;;;35.17;13.43;;;16.40;90.70;;;;;;9172614;19;20018;-66
2022/10/18 09:28:35;;;;;;;27.92;12.35;;;16.40;90.70;;;;;;9173944;19;20014;-67
2022/10/18 09:31:53;;;;;;;34.30;13.10;;;16.50;90.70;;;;;;9167959;19;20014;-68
2022/10/18 09:35:00;;;;;;;35.05;12.55;;;16.70;90.80;;;;;;9169858;19;20107;-68
2022/10/18 09:38:06;;;;;;;27.45;11.52;;;16.80;90.80;;;;;;9177825;19;20032;-66
2022/10/18 09:41:16;;;;;;;28.15;11.35;;;16.90;90.80;;;;;;9172931;19;20025;-67
2022/10/18 09:44:25;;;;;;;26.60;11.35;;;17.10;90.80;;;;;;9173374;19;20050;-67
2022/10/18 09:47:38;;;;;;;24.30;10.75;;;17.20;90.70;;;;;;9172080;19;20074;-70
2022/10/18 09:50:45;;;;;;;28.67;11.07;;;17.40;90.70;;;;;;9168890;19;20563;-68
2022/10/18 09:54:01;;;;;;;22.17;10.35;;;17.60;90.70;;;;;;9163423;19;20018;-68
2022/10/18 09:57:10;;;;;;;23.98;10.00;;;17.70;90.60;;;;;;9163507;19;20034;-68
2022/10/18 10:00:17;;;;;;;21.00;10.77;;;17.90;90.50;;;;;;9166708;19;20018;-66
2022/10/18 10:03:23;;;;;;;22.63;9.45;;;18.10;90.50;;;;;;9167828;19;20018;-69
2022/10/18 10:06:28;;;;;;;19.67;8.82;;;18.20;90.40;;;;;;9166217;19;20022;-65
2022/10/18 10:09:37;;;;;;;22.35;8.13;;;18.40;90.30;;;;;;9169281;19;20028;-67
2022/10/18 10:12:42;;;;;;;21.70;8.05;;;18.50;90.50;;;;;;9168447;19;20051;-66
2022/10/18 10:15:53;;;;;;;24.42;6.93;;;18.60;90.20;;;;;;9169818;19;20018;-68
2022/10/18 10:18:58;;;;;;;13.20;5.32;;;18.80;90.40;;;;;;9168008;19;20078;-66
2022/10/18 10:22:06;;;;;;;17.75;6.15;;;18.90;90.00;;;;;;9164318;19;20033;-66
2022/10/18 10:25:22;;;;;;;16.58;5.57;;;19.00;89.70;;;;;;9165487;19;20048;-65
2022/10/18 10:28:29;;;;;;;18.02;5.00;;;19.20;89.30;;;;;;9161856;19;20694;-66
2022/10/18 10:31:36;;;;;;;17.35;4.95;;;19.30;89.30;;;;;;9156955;19;20475;-64
2022/10/18 10:34:41;;;;;;;11.95;4.50;;;19.40;89.00;;;;;;9161821;19;20051;-67
2022/10/18 10:37:52;;;;;;;14.25;4.25;;;19.60;88.80;;;;;;9163582;19;20038;-66
2022/10/18 10:40:57;;;;;;;12.85;3.03;;;19.70;88.60;;;;;;9165541;19;20034;-66
2022/10/18 10:44:04;;;;;;;23.65;4.38;;;19.80;88.30;;;;;;9158881;19;20026;-68
2022/10/18 10:47:08;;;;;;;13.93;3.35;;;19.90;87.90;;;;;;9165842;19;20073;-66
2022/10/18 10:50:23;;;;;;;6.70;2.55;;;20.10;87.60;;;;;;9170274;19;20020;-66
2022/10/18 10:53:39;;;;;;;11.48;3.38;;;20.20;87.20;;;;;;9165383;19;20700;-67
2022/10/18 10:56:55;;;;;;;8.02;2.30;;;20.30;86.50;;;;;;9169641;19;20020;-66
2022/10/18 11:00:00;;;;;;;8.60;2.80;;;20.30;86.10;;;;;;9164068;19;20661;-65
2022/10/18 11:03:07;;;;;;;8.95;2.78;;;20.40;86.10;;;;;;9171014;19;20373;-67
2022/10/18 11:06:49;;;;;;;12.70;3.20;;;20.50;85.60;;;;;;9166541;19;20007;-66
2022/10/18 11:10:00;;;;;;;10.65;2.90;;;20.60;85.00;;;;;;9175552;19;20019;-65
2022/10/18 11:13:17;;;;;;;8.82;2.10;;;20.60;85.00;;;;;;9173420;19;20018;-65
2022/10/18 11:16:27;;;;;;;9.85;2.17;;;20.70;84.80;;;;;;9175597;19;20060;-65
2022/10/18 11:19:38;;;;;;;10.07;1.45;;;20.70;84.40;;;;;;9175485;19;20368;-64
2022/10/18 11:22:51;;;;;;;9.13;1.15;;;20.80;84.00;;;;;;9175252;19;20006;-65
2022/10/18 11:26:21;;;;;;;9.10;1.42;;;20.90;83.70;;;;;;9174260;19;20041;-65
2022/10/18 11:29:39;;;;;;;5.90;1.17;;;20.90;83.50;;;;;;9171160;19;20019;-66
2022/10/18 11:32:51;;;;;;;5.15;1.60;;;20.90;82.60;;;;;;9170937;19;20018;-66
2022/10/18 11:36:05;;;;;;;3.38;1.33;;;21.00;82.30;;;;;;9181990;19;20097;-65
2022/10/18 11:39:19;;;;;;;9.70;1.00;;;20.90;81.70;;;;;;9182738;19;20531;-66
2022/10/18 11:42:30;;;;;;;4.43;0.98;;;20.90;81.30;;;;;;9182942;19;20014;-65
2022/10/18 11:45:41;;;;;;;5.13;1.42;;;20.90;81.10;;;;;;9179618;19;20010;-66
2022/10/18 11:49:00;;;;;;;7.55;1.40;;;20.80;80.80;;;;;;9181003;19;20063;-64
2022/10/18 11:52:13;;;;;;;12.50;2.05;;;20.90;80.60;;;;;;9179054;19;20018;-65
2022/10/18 11:55:49;;;;;;;7.18;2.13;;;20.80;80.50;;;;;;9171830;19;20033;-65
2022/10/18 11:59:06;;;;;;;8.95;1.95;;;20.80;80.10;;;;;;9178327;19;20027;-64
2022/10/18 12:02:42;;;;;;;6.43;2.10;;;20.80;80.20;;;;;;9181009;19;20098;-64
2022/10/18 12:05:48;;;;;;;7.13;1.98;;;20.80;79.90;;;;;;9177934;19;20027;-66
2022/10/18 12:08:55;;;;;;;7.65;1.67;;;20.80;80.20;;;;;;9181293;19;20032;-66
2022/10/18 12:12:03;;;;;;;8.30;1.92;;;20.80;79.90;;;;;;9180894;19;20018;-65
2022/10/18 12:15:17;;;;;;;8.02;1.80;;;20.70;79.60;;;;;;9177708;19;20090;-66
2022/10/18 12:18:25;;;;;;;11.80;1.77;;;20.80;79.40;;;;;;9179692;19;20546;-64
2022/10/18 12:21:33;;;;;;;8.27;1.60;;;20.70;79.50;;;;;;9180342;19;20021;-65
2022/10/18 12:24:38;;;;;;;6.22;1.40;;;20.70;79.30;;;;;;9176100;19;20013;-64
2022/10/18 12:27:49;;;;;;;4.85;0.95;;;20.60;79.10;;;;;;9179832;19;20022;-63
2022/10/18 12:30:58;;;;;;;4.85;1.20;;;20.60;78.60;;;;;;9179427;19;20031;-64
2022/10/18 12:34:10;;;;;;;6.38;1.10;;;20.50;78.50;;;;;;9171856;19;20381;-66
2022/10/18 12:37:38;;;;;;;8.05;1.38;;;20.50;78.20;;;;;;9176494;19;20375;-65
2022/10/18 12:40:45;;;;;;;9.00;1.33;;;20.40;77.40;;;;;;9167020;19;20095;-69
2022/10/18 12:43:55;;;;;;;7.78;1.38;;;20.30;77.70;;;;;;9167937;19;20064;-66
2022/10/18 12:47:01;;;;;;;9.15;1.80;;;20.20;77.30;;;;;;9168716;19;20023;-65
2022/10/18 12:50:08;;;;;;;5.72;1.25;;;20.10;77.50;;;;;;9167166;19;20015;-66
2022/10/18 12:53:21;;;;;;;9.23;0.98;;;20.00;77.30;;;;;;9168019;19;20065;-66
2022/10/18 12:56:40;;;;;;;8.48;1.40;;;19.90;76.90;;;;;;9168203;19;20097;-66
2022/10/18 12:59:46;;;;;;;13.93;1.63;;;19.80;76.80;;;;;;9167912;19;20043;-65
2022/10/18 13:03:29;;;;;;;5.38;1.10;;;19.70;77.20;;;;;;9170991;19;20014;-63
2022/10/18 13:07:03;;;;;;;6.20;1.25;;;19.50;76.50;;;;;;9172217;19;20021;-64
2022/10/18 13:10:39;;;;;;;6.63;1.33;;;19.50;76.80;;;;;;9179283;19;20500;-63
2022/10/18 13:13:54;;;;;;;5.82;1.35;;;19.30;76.80;;;;;;9176360;19;20026;-63
2022/10/18 13:17:13;;;;;;;7.55;1.95;;;19.20;77.00;;;;;;9179353;19;20022;-63
2022/10/18 13:20:25;;;;;;;9.77;1.77;;;19.10;76.80;;;;;;9177141;19;20018;-64
2022/10/18 13:23:41;;;;;;;7.23;1.23;;;19.00;76.80;;;;;;9178041;19;20035;-64
2022/10/18 13:26:58;;;;;;;7.65;1.40;;;18.90;76.80;;;;;;9178217;19;20085;-65
2022/10/18 13:30:38;;;;;;;4.82;0.93;;;18.80;76.90;;;;;;9175435;19;20018;-65
2022/10/18 13:33:44;;;;;;;5.28;1.80;;;18.70;76.90;;;;;;9172435;19;20726;-64
2022/10/18 13:36:57;;;;;;;9.32;1.52;;;18.60;76.90;;;;;;9169340;19;20026;-64
2022/10/18 13:40:23;;;;;;;7.30;1.40;;;18.60;76.70;;;;;;9172992;19;20025;-65
2022/10/18 13:44:03;;;;;;;7.57;1.02;;;18.50;76.70;;;;;;9176737;19;20022;-64
2022/10/18 13:47:13;;;;;;;7.35;1.70;;;18.40;76.80;;;;;;9171027;19;20007;-64
2022/10/18 13:50:31;;;;;;;10.30;1.50;;;18.30;77.00;;;;;;9173393;19;20022;-64
2022/10/18 13:53:47;;;;;;;12.00;1.42;;;18.30;76.90;;;;;;9174292;19;20076;-66
2022/10/18 13:56:57;;;;;;;11.25;1.65;;;18.20;77.00;;;;;;9177896;19;20049;-63
2022/10/18 14:00:21;;;;;;;8.93;1.10;;;18.10;77.10;;;;;;9179874;19;20702;-64
2022/10/18 14:04:02;;;;;;;8.10;1.58;;;18.00;76.70;;;;;;9177301;19;20061;-64
2022/10/18 14:07:09;;;;;;;7.93;1.50;;;18.00;76.60;;;;;;9177157;19;20017;-64
2022/10/18 14:10:22;;;;;;;5.88;1.55;;;17.90;76.90;;;;;;9180028;19;20022;-64
2022/10/18 14:13:49;;;;;;;14.65;1.73;;;17.90;76.70;;;;;;9178104;19;20023;-63
2022/10/18 14:17:00;;;;;;;10.85;1.42;;;17.80;76.80;;;;;;9176193;19;20019;-64
2022/10/18 14:20:14;;;;;;;8.43;1.40;;;17.70;76.70;;;;;;9178247;19;20550;-65
2022/10/18 14:23:22;;;;;;;5.40;1.40;;;17.70;76.70;;;;;;9178707;19;20077;-63
2022/10/18 14:26:27;;;;;;;7.60;0.90;;;17.60;76.50;;;;;;9177274;19;20010;-66
2022/10/18 14:29:31;;;;;;;14.35;1.40;;;17.60;76.60;;;;;;9176594;19;20019;-64
2022/10/18 14:32:35;;;;;;;5.90;1.20;;;17.50;76.50;;;;;;9172150;19;20374;-64
2022/10/18 14:35:40;;;;;;;8.98;1.67;;;17.50;76.60;;;;;;9174536;19;20074;-65
2022/10/18 14:38:52;;;;;;;10.52;1.33;;;17.50;76.60;;;;;;9175447;19;20634;-63
2022/10/18 14:41:57;;;;;;;10.40;1.55;;;17.40;76.40;;;;;;9177588;19;20026;-65
2022/10/18 14:45:00;;;;;;;5.20;1.23;;;17.40;76.50;;;;;;9178876;19;20077;-62
2022/10/18 14:48:09;;;;;;;9.35;2.13;;;17.40;76.50;;;;;;9176258;19;20018;-68
2022/10/18 14:51:13;;;;;;;9.13;1.27;;;17.40;76.50;;;;;;9165011;19;20048;-63
2022/10/18 14:54:21;;;;;;;5.95;1.27;;;17.30;76.60;;;;;;9161359;19;20023;-62
2022/10/18 14:57:32;;;;;;;7.85;1.20;;;17.30;76.50;;;;;;9167518;19;20018;-67
2022/10/18 15:00:38;;;;;;;6.40;0.98;;;17.30;76.60;;;;;;9171236;19;20026;-63
2022/10/18 15:03:42;;;;;;;7.60;1.50;;;17.30;76.50;;;;;;9169487;19;20048;-63
2022/10/18 15:06:46;;;;;;;7.50;1.20;;;17.20;76.40;;;;;;9167241;19;20399;-65
2022/10/18 15:09:52;;;;;;;5.82;0.98;;;17.20;76.40;;;;;;9175287;19;20475;-66
2022/10/18 15:12:59;;;;;;;10.02;1.60;;;17.20;76.30;;;;;;9170249;19;20469;-62
2022/10/18 15:16:17;;;;;;;11.82;1.95;;;17.20;76.30;;;;;;9172146;19;20081;-62
2022/10/18 15:19:33;;;;;;;10.52;1.95;;;17.10;76.30;;;;;;9179017;19;20019;-65
2022/10/18 15:22:36;;;;;;;8.32;1.75;;;17.10;76.20;;;;;;9170364;19;20019;-64
2022/10/18 15:25:42;;;;;;;15.88;1.70;;;17.10;76.50;;;;;;9169861;19;20524;-67
2022/10/18 15:28:51;;;;;;;9.88;1.83;;;17.00;76.40;;;;;;9166022;19;20056;-63
2022/10/18 15:31:56;;;;;;;12.15;1.52;;;17.00;76.40;;;;;;9168845;19;20015;-63
2022/10/18 15:35:12;;;;;;;5.32;1.38;;;17.00;76.50;;;;;;9174982;19;20029;-63
2022/10/18 15:38:18;;;;;;;9.02;1.30;;;16.90;76.40;;;;;;9174687;19;20402;-63
2022/10/18 15:41:40;;;;;;;9.45;1.30;;;16.90;76.60;;;;;;9175625;19;20626;-64
2022/10/18 15:44:50;;;;;;;10.27;1.40;;;16.80;76.50;;;;;;9176820;19;20022;-65
2022/10/18 15:48:01;;;;;;;5.03;1.73;;;16.70;76.60;;;;;;9174096;19;20059;-63
2022/10/18 15:51:06;;;;;;;16.08;2.33;;;16.70;76.60;;;;;;9176631;19;20043;-66
2022/10/18 15:54:18;;;;;;;8.43;1.63;;;16.70;76.80;;;;;;9174979;19;20022;-65
2022/10/18 15:57:25;;;;;;;6.90;1.15;;;16.60;76.60;;;;;;9176098;19;20022;-64
2022/10/18 16:00:33;;;;;;;10.73;1.63;;;16.60;76.80;;;;;;9175976;19;20377;-64
2022/10/18 16:03:40;;;;;;;6.95;1.60;;;16.50;76.80;;;;;;9174189;19;20018;-65
2022/10/18 16:06:43;;;;;;;;;;;16.50;76.90;;;;;;9175886;19;20777;-62